Terminal Aerodrome Forecast
Issued by NWS

Home | Current Version | Previous Version | Text Only | Print | Product List | Glossary On
Versions: 1 2 3 4 5 6 7 8 9 10 11 12 13 14 15 16 17 18 19 20 21 22 23 24 25 26 27 28 29 30 31 32 33 34 35
000
FTUS45 KGJT 291508 AAA
TAFDRO
TAF AMD
KDRO 291508Z 2915/3012 06007KT 2SM -SN BKN026 OVC035
      TEMPO 2915/2917 5SM -SN SCT026 OVC045
     FM291700 07006KT P6SM -SHRASN BKN080 OVC100
     FM291800 13006KT P6SM -SHRA BKN100
     FM292000 30012G20KT P6SM -SHRA BKN060
     FM300500 VRB03KT P6SM SCT080=

USA.gov is the U.S. government's official web portal to all federal, state and local government web resources and services.